createdAt,value
2023-05-23T00:01:26.648Z,100326.27
2023-05-23T00:04:02.004Z,100322.88
2023-05-23T00:06:36.364Z,100316.91
2023-05-23T00:09:09.095Z,100320.46
2023-05-23T00:11:45.115Z,100320.47
2023-05-23T00:14:17.861Z,100313.53
2023-05-23T00:16:49.643Z,100318.11
2023-05-23T00:19:21.987Z,100310.72
2023-05-23T00:21:58.334Z,100310.21
2023-05-23T00:24:30.093Z,100307.94
2023-05-23T00:27:01.990Z,100309.94
2023-05-23T00:29:33.955Z,100309.49
2023-05-23T00:32:05.866Z,100304.81
2023-05-23T00:34:37.728Z,100304.17
2023-05-23T00:37:09.452Z,100299.34
2023-05-23T00:39:41.175Z,100302.64
2023-05-23T00:42:12.967Z,100298.54
2023-05-23T00:44:44.950Z,100301.46
2023-05-23T00:47:16.684Z,100298.88
2023-05-23T00:49:48.428Z,100304.62
2023-05-23T00:52:20.153Z,100302.14
2023-05-23T00:54:52.174Z,100304.80
2023-05-23T00:57:24.103Z,100299.08
2023-05-23T00:59:57.703Z,100302.63
2023-05-23T01:02:32.550Z,100301.25
2023-05-23T01:05:04.578Z,100296.63
2023-05-23T01:07:36.527Z,100295.83
2023-05-23T01:10:10.251Z,100296.13
2023-05-23T01:12:51.068Z,100298.73
2023-05-23T01:15:25.044Z,100296.66
2023-05-23T01:18:04.028Z,100292.06
2023-05-23T01:20:40.966Z,100297.39
2023-05-23T01:23:31.116Z,100297.55
2023-05-23T01:26:20.118Z,100295.92
2023-05-23T01:28:56.758Z,100291.77
2023-05-23T01:31:31.091Z,100287.79
2023-05-23T01:34:03.573Z,100284.23
2023-05-23T01:36:41.088Z,100284.09
2023-05-23T01:39:13.080Z,100284.16
2023-05-23T01:41:45.068Z,100284.67
2023-05-23T01:44:18.635Z,100282.46
2023-05-23T01:46:52.818Z,100280.86
2023-05-23T01:49:25.555Z,100278.89
2023-05-23T01:51:57.614Z,100275.38
2023-05-23T01:54:30.378Z,100276.66
2023-05-23T01:57:02.802Z,100270.35
2023-05-23T01:59:34.817Z,100267.44
2023-05-23T02:02:07.008Z,100261.91
2023-05-23T02:04:39.251Z,100257.98
2023-05-23T02:07:10.894Z,100257.89
2023-05-23T02:09:43.218Z,100259.43
2023-05-23T02:12:15.421Z,100254.66
2023-05-23T02:14:47.113Z,100254.63
2023-05-23T02:17:19.282Z,100251.14
2023-05-23T02:19:51.124Z,100247.13
2023-05-23T02:22:26.964Z,100253.17
2023-05-23T02:24:59.031Z,100249.31
2023-05-23T02:27:31.729Z,100248.75
2023-05-23T02:30:01.938Z,100242.72
2023-05-23T02:32:33.810Z,100240.77
2023-05-23T02:35:06.659Z,100241.29
2023-05-23T02:37:38.261Z,100233.26
2023-05-23T02:40:12.203Z,100228.40
2023-05-23T02:42:44.186Z,100232.44
2023-05-23T02:45:15.936Z,100235.90
2023-05-23T02:47:47.751Z,100236.21
2023-05-23T02:50:19.634Z,100232.28
2023-05-23T02:52:51.689Z,100228.36
2023-05-23T02:55:23.761Z,100227.11
2023-05-23T02:57:56.781Z,100228.22
2023-05-23T03:00:30.654Z,100229.31
2023-05-23T03:03:02.603Z,100226.52
2023-05-23T03:05:34.779Z,100227.96
2023-05-23T03:08:06.801Z,100222.71
2023-05-23T03:10:39.060Z,100221.45
2023-05-23T03:13:10.773Z,100220.20
2023-05-23T03:15:42.649Z,100213.35
2023-05-23T03:18:14.611Z,100210.77
2023-05-23T03:20:46.279Z,100212.45
2023-05-23T03:23:18.100Z,100212.41
2023-05-23T03:25:50.088Z,100216.77
2023-05-23T03:28:21.745Z,100216.39
2023-05-23T03:30:53.460Z,100214.95
2023-05-23T03:33:25.363Z,100211.61
2023-05-23T03:35:58.162Z,100214.57
2023-05-23T03:38:30.382Z,100213.57
2023-05-23T03:41:02.157Z,100213.13
2023-05-23T03:43:34.485Z,100210.43
2023-05-23T03:46:06.495Z,100209.23
2023-05-23T03:48:38.333Z,100212.05
2023-05-23T03:51:10.427Z,100209.19
2023-05-23T03:53:42.086Z,100208.70
2023-05-23T03:56:14.799Z,100210.22
2023-05-23T03:58:47.079Z,100212.88
2023-05-23T04:01:19.555Z,100212.19
2023-05-23T04:03:53.005Z,100216.02
2023-05-23T04:06:25.365Z,100216.86
2023-05-23T04:08:57.093Z,100213.29
2023-05-23T04:11:30.203Z,100210.29
2023-05-23T04:14:02.050Z,100204.75
2023-05-23T04:16:36.300Z,100204.04
2023-05-23T04:19:08.182Z,100204.09
2023-05-23T04:21:40.406Z,100205.20
2023-05-23T04:24:18.670Z,100201.89
2023-05-23T04:26:50.609Z,100203.76
2023-05-23T04:29:22.621Z,100205.56
2023-05-23T04:31:54.986Z,100202.28
2023-05-23T04:34:27.586Z,100198.09
2023-05-23T04:37:01.860Z,100191.11
2023-05-23T04:39:34.067Z,100192.50
2023-05-23T04:42:29.297Z,100193.17
2023-05-23T04:45:12.449Z,100190.05
2023-05-23T04:48:22.882Z,100185.06
2023-05-23T04:50:56.174Z,100188.48
2023-05-23T04:53:27.989Z,100189.71
2023-05-23T04:56:00.396Z,100187.61
2023-05-23T04:58:33.698Z,100191.99
2023-05-23T05:01:09.832Z,100188.35
2023-05-23T05:03:40.732Z,100183.95
2023-05-23T05:06:17.166Z,100180.19
2023-05-23T05:08:48.915Z,100183.05
2023-05-23T05:11:20.604Z,100176.91
2023-05-23T05:13:52.310Z,100180.74
2023-05-23T05:16:24.837Z,100177.17
2023-05-23T05:18:57.246Z,100173.73
2023-05-23T05:21:29.051Z,100172.52
2023-05-23T05:24:01.691Z,100173.88
2023-05-23T05:26:33.829Z,100162.91
2023-05-23T05:29:06.069Z,100159.84
2023-05-23T05:31:38.839Z,100154.89
2023-05-23T05:34:11.028Z,100147.16
2023-05-23T05:36:47.892Z,100152.44
2023-05-23T05:39:21.574Z,100156.45
2023-05-23T05:41:53.250Z,100159.05
2023-05-23T05:44:25.014Z,100160.30
2023-05-23T05:46:56.676Z,100160.75
2023-05-23T05:49:28.357Z,100157.50
2023-05-23T05:52:00.976Z,100158.27
2023-05-23T05:54:32.668Z,100159.88
2023-05-23T05:57:05.064Z,100156.48
2023-05-23T05:59:37.740Z,100157.05
2023-05-23T06:02:09.552Z,100147.98
2023-05-23T06:04:41.291Z,100149.75
2023-05-23T06:07:13.389Z,100149.41
2023-05-23T06:09:45.635Z,100148.39
2023-05-23T06:12:17.762Z,100146.95
2023-05-23T06:14:49.518Z,100140.27
2023-05-23T06:17:22.096Z,100140.41
2023-05-23T06:19:54.118Z,100133.73
2023-05-23T06:22:26.325Z,100132.27
2023-05-23T06:24:58.353Z,100131.69
2023-05-23T06:27:30.449Z,100127.73
2023-05-23T06:30:02.761Z,100122.08
2023-05-23T06:32:34.508Z,100124.23
2023-05-23T06:35:07.369Z,100125.73
2023-05-23T06:37:43.393Z,100127.54
2023-05-23T06:40:15.749Z,100124.48
2023-05-23T06:42:47.674Z,100123.95
2023-05-23T06:45:39.266Z,100121.42
2023-05-23T06:48:11.727Z,100121.77
2023-05-23T06:50:44.135Z,100120.14
2023-05-23T06:53:19.227Z,100121.16
2023-05-23T06:55:51.594Z,100128.59
2023-05-23T06:58:26.801Z,100127.61
2023-05-23T07:01:00.029Z,100126.04
2023-05-23T07:03:38.265Z,100126.63
2023-05-23T07:06:11.046Z,100124.35
2023-05-23T07:08:43.709Z,100124.95
2023-05-23T07:11:15.550Z,100128.39
2023-05-23T07:13:49.567Z,100130.48
2023-05-23T07:16:28.127Z,100132.29
2023-05-23T07:19:06.780Z,100130.06
2023-05-23T07:21:41.436Z,100125.96
2023-05-23T07:24:13.620Z,100129.32
2023-05-23T07:26:45.710Z,100129.80
2023-05-23T07:29:18.186Z,100123.73
2023-05-23T07:31:51.989Z,100124.30
2023-05-23T07:34:26.804Z,100123.94
2023-05-23T07:37:01.222Z,100124.09
2023-05-23T07:39:37.527Z,100124.52
2023-05-23T07:42:10.690Z,100124.14
2023-05-23T07:44:43.834Z,100126.23
2023-05-23T07:47:13.939Z,100123.71
2023-05-23T07:49:47.525Z,100122.39
2023-05-23T07:52:19.271Z,100117.61
2023-05-23T07:54:51.073Z,100117.64
2023-05-23T07:57:24.504Z,100118.98
2023-05-23T07:59:56.480Z,100118.73
2023-05-23T08:02:29.029Z,100117.46
2023-05-23T08:05:01.694Z,100117.99
2023-05-23T08:07:34.347Z,100114.36
2023-05-23T08:10:12.040Z,100115.55
2023-05-23T08:12:43.927Z,100117.36
2023-05-23T08:15:19.444Z,100114.48
2023-05-23T08:17:57.341Z,100114.94
2023-05-23T08:20:32.288Z,100118.11
2023-05-23T08:23:04.847Z,100112.63
2023-05-23T08:25:36.587Z,100107.16
2023-05-23T08:28:08.351Z,100111.32
2023-05-23T08:31:07.374Z,100105.48
2023-05-23T08:33:39.634Z,100105.19
2023-05-23T08:36:11.711Z,100107.59
2023-05-23T08:38:44.488Z,100108.31
2023-05-23T08:41:24.647Z,100104.52
2023-05-23T08:44:01.120Z,100102.42
2023-05-23T08:46:41.135Z,100099.64
2023-05-23T08:49:15.064Z,100097.40
2023-05-23T08:51:48.061Z,100101.15
2023-05-23T08:54:24.529Z,100103.57
2023-05-23T08:56:56.342Z,100096.59
2023-05-23T08:59:28.961Z,100100.22
2023-05-23T09:02:01.489Z,100099.48
2023-05-23T09:04:33.873Z,100102.42
2023-05-23T09:07:12.775Z,100103.80
2023-05-23T09:09:45.272Z,100103.27
2023-05-23T09:12:18.232Z,100098.98
2023-05-23T09:14:53.076Z,100094.34
2023-05-23T09:17:25.967Z,100096.47
2023-05-23T09:19:58.131Z,100091.66
2023-05-23T09:22:46.845Z,100093.08
2023-05-23T09:25:19.615Z,100091.58
2023-05-23T09:27:50.699Z,100091.60
2023-05-23T09:30:23.098Z,100090.71
2023-05-23T09:33:05.567Z,100088.90
2023-05-23T09:35:47.135Z,100090.69
2023-05-23T09:38:20.153Z,100090.52
2023-05-23T09:40:57.936Z,100092.60
2023-05-23T09:43:31.363Z,100092.73
2023-05-23T09:46:10.634Z,100088.66
2023-05-23T09:48:47.360Z,100080.58
2023-05-23T09:51:22.112Z,100077.23
2023-05-23T09:53:54.046Z,100075.85
2023-05-23T09:56:28.746Z,100076.54
2023-05-23T09:59:01.861Z,100075.52
2023-05-23T10:01:35.413Z,100075.08
2023-05-23T10:04:08.725Z,100075.48
2023-05-23T10:06:46.572Z,100074.76
2023-05-23T10:09:21.954Z,100072.95
2023-05-23T10:12:38.013Z,100069.58
2023-05-23T10:15:13.457Z,100069.62
2023-05-23T10:18:10.681Z,100068.59
2023-05-23T10:20:49.086Z,100066.62
2023-05-23T10:23:22.315Z,100065.55
2023-05-23T10:25:54.706Z,100064.30
2023-05-23T10:28:27.215Z,100061.67
2023-05-23T10:31:00.666Z,100059.33
2023-05-23T10:33:41.652Z,100060.41
2023-05-23T10:36:20.695Z,100059.76
2023-05-23T10:39:00.930Z,100058.82
2023-05-23T10:41:37.861Z,100057.83
2023-05-23T10:44:17.924Z,100057.01
2023-05-23T10:46:58.353Z,100057.86
2023-05-23T10:49:42.427Z,100056.00
2023-05-23T10:52:17.028Z,100052.48
2023-05-23T10:54:51.313Z,100052.75
2023-05-23T10:57:26.949Z,100049.08
2023-05-23T10:59:58.724Z,100049.36
2023-05-23T11:02:31.505Z,100050.02
2023-05-23T11:05:22.148Z,100050.05
2023-05-23T11:08:14.773Z,100050.46
2023-05-23T11:10:57.775Z,100053.48
2023-05-23T11:14:02.492Z,100048.77
2023-05-23T11:16:41.461Z,100049.08
2023-05-23T11:19:28.255Z,100050.06
2023-05-23T11:22:06.005Z,100045.04
2023-05-23T11:24:54.532Z,100040.59
2023-05-23T11:27:35.741Z,100042.94
2023-05-23T11:30:13.296Z,100039.77
2023-05-23T11:32:51.546Z,100044.43
2023-05-23T11:35:24.135Z,100044.36
2023-05-23T11:37:57.913Z,100042.34
2023-05-23T11:40:32.365Z,100044.92
2023-05-23T11:43:06.126Z,100054.67
2023-05-23T11:45:40.133Z,100059.30
2023-05-23T11:48:13.625Z,100066.13
2023-05-23T11:50:50.556Z,100073.36
2023-05-23T11:53:25.672Z,100077.44
2023-05-23T11:56:00.242Z,100088.46
2023-05-23T11:58:34.921Z,100086.62
2023-05-23T12:01:08.656Z,100088.33
2023-05-23T12:03:49.429Z,100087.81
2023-05-23T12:06:24.698Z,100091.02
2023-05-23T12:08:56.592Z,100093.72
2023-05-23T12:11:32.185Z,100091.01
2023-05-23T12:14:06.451Z,100094.70
2023-05-23T12:16:39.134Z,100095.80
2023-05-23T12:19:11.590Z,100094.08
2023-05-23T12:21:47.978Z,100093.60
2023-05-23T12:24:21.435Z,100095.14
2023-05-23T12:26:55.203Z,100094.28
2023-05-23T12:29:34.983Z,100092.34
2023-05-23T12:32:08.953Z,100091.38
2023-05-23T12:34:44.859Z,100089.86
2023-05-23T12:37:20.469Z,100087.66
2023-05-23T12:39:52.796Z,100087.16
2023-05-23T12:42:24.459Z,100089.25
2023-05-23T12:44:56.492Z,100092.11
2023-05-23T12:47:28.308Z,100093.28
2023-05-23T12:50:00.466Z,100092.86
2023-05-23T12:52:32.436Z,100095.95
2023-05-23T12:55:05.738Z,100094.29
2023-05-23T12:57:38.354Z,100092.20
2023-05-23T13:00:09.829Z,100094.82
2023-05-23T13:02:41.956Z,100095.46
2023-05-23T13:05:14.016Z,100092.02
2023-05-23T13:07:45.774Z,100094.89
2023-05-23T13:10:17.656Z,100092.73
2023-05-23T13:12:49.265Z,100095.23
2023-05-23T13:15:21.136Z,100094.55
2023-05-23T13:17:53.042Z,100094.61
2023-05-23T13:20:25.078Z,100096.43
2023-05-23T13:22:57.608Z,100094.15
2023-05-23T13:25:30.044Z,100091.55
2023-05-23T13:28:02.387Z,100090.40
2023-05-23T13:30:34.257Z,100094.93
2023-05-23T13:33:06.484Z,100097.67
2023-05-23T13:35:38.531Z,100098.63
2023-05-23T13:38:10.604Z,100100.80
2023-05-23T13:40:42.648Z,100098.16
2023-05-23T13:43:15.661Z,100092.17
2023-05-23T13:45:47.346Z,100092.78
2023-05-23T13:48:19.175Z,100089.63
2023-05-23T13:50:50.902Z,100092.23
2023-05-23T13:53:23.554Z,100097.38
2023-05-23T13:55:55.945Z,100091.70
2023-05-23T13:58:29.220Z,100091.61
2023-05-23T14:01:02.634Z,100092.35
2023-05-23T14:03:37.078Z,100095.79
2023-05-23T14:06:09.317Z,100094.33
2023-05-23T14:08:41.212Z,100100.65
2023-05-23T14:11:12.876Z,100101.99
2023-05-23T14:13:44.727Z,100105.66
2023-05-23T14:16:17.191Z,100110.91
2023-05-23T14:18:49.610Z,100109.62
2023-05-23T14:21:21.941Z,100105.91
2023-05-23T14:23:53.629Z,100098.90
2023-05-23T14:26:25.998Z,100101.30
2023-05-23T14:28:57.964Z,100102.02
2023-05-23T14:31:30.305Z,100103.45
2023-05-23T14:34:02.500Z,100102.85
2023-05-23T14:36:36.603Z,100103.11
2023-05-23T14:39:10.622Z,100099.02
2023-05-23T14:41:43.363Z,100097.14
2023-05-23T14:44:15.283Z,100099.08
2023-05-23T14:46:49.743Z,100103.63
2023-05-23T14:49:21.591Z,100104.46
2023-05-23T14:51:53.212Z,100102.63
2023-05-23T14:54:24.982Z,100096.25
2023-05-23T14:56:56.896Z,100097.77
2023-05-23T14:59:29.238Z,100093.96
2023-05-23T15:02:01.144Z,100094.65
2023-05-23T15:04:33.264Z,100093.31
2023-05-23T15:07:05.456Z,100088.39
2023-05-23T15:09:37.606Z,100078.67
2023-05-23T15:12:09.864Z,100077.31
2023-05-23T15:14:41.840Z,100077.28
2023-05-23T15:17:19.769Z,100074.58
2023-05-23T15:19:51.705Z,100072.42
2023-05-23T15:25:02.357Z,100074.90
2023-05-23T15:27:34.073Z,100073.82
2023-05-23T15:30:07.913Z,100071.00
2023-05-23T15:32:39.969Z,100072.80
2023-05-23T15:35:12.468Z,100071.81
2023-05-23T15:37:47.357Z,100071.86
2023-05-23T15:40:19.314Z,100071.27
2023-05-23T15:42:51.371Z,100066.17
2023-05-23T15:45:23.453Z,100061.36
2023-05-23T15:47:55.189Z,100062.05
2023-05-23T15:50:27.025Z,100059.55
2023-05-23T15:52:58.883Z,100056.90
2023-05-23T15:55:30.648Z,100055.06
2023-05-23T15:58:02.952Z,100053.02
2023-05-23T16:00:34.801Z,100050.52
2023-05-23T16:03:06.881Z,100044.33
2023-05-23T16:05:38.947Z,100040.20
2023-05-23T16:08:11.596Z,100042.08
2023-05-23T16:10:43.407Z,100038.08
2023-05-23T16:13:17.291Z,100034.34
2023-05-23T16:15:50.026Z,100031.02
2023-05-23T16:18:23.457Z,100033.46
2023-05-23T16:20:57.194Z,100031.73
2023-05-23T16:23:29.079Z,100028.81
2023-05-23T16:26:01.481Z,100026.30
2023-05-23T16:28:33.388Z,100025.15
2023-05-23T16:31:05.553Z,100025.65
2023-05-23T16:33:37.693Z,100025.74
2023-05-23T16:36:10.256Z,100023.36
2023-05-23T16:38:41.932Z,100023.98
2023-05-23T16:41:13.976Z,100024.41
2023-05-23T16:43:46.332Z,100020.77
2023-05-23T16:46:20.583Z,100020.23
2023-05-23T16:48:52.700Z,100017.01
2023-05-23T16:51:24.876Z,100014.56
2023-05-23T16:53:56.735Z,100010.21
2023-05-23T16:56:28.857Z,100017.18
2023-05-23T16:59:01.135Z,100019.96
2023-05-23T17:01:33.437Z,100017.65
2023-05-23T17:04:06.315Z,100012.75
2023-05-23T17:06:38.662Z,100017.48
2023-05-23T17:09:10.472Z,100014.40
2023-05-23T17:11:42.315Z,100015.39
2023-05-23T17:14:14.414Z,100018.77
2023-05-23T17:16:46.419Z,100017.69
2023-05-23T17:19:18.414Z,100018.36
2023-05-23T17:21:50.673Z,100020.66
2023-05-23T17:24:22.969Z,100022.48
2023-05-23T17:26:55.208Z,100024.75
2023-05-23T17:29:27.417Z,100023.55
2023-05-23T17:31:59.227Z,100026.70
2023-05-23T17:34:31.673Z,100032.41
2023-05-23T17:37:03.891Z,100033.85
2023-05-23T17:39:35.965Z,100037.64
2023-05-23T17:42:08.417Z,100037.75
2023-05-23T17:44:39.166Z,100039.08
2023-05-23T17:47:11.400Z,100040.33
2023-05-23T17:49:43.434Z,100042.80
2023-05-23T17:52:15.859Z,100045.80
2023-05-23T17:54:47.747Z,100048.09
2023-05-23T17:57:20.247Z,100051.98
2023-05-23T17:59:52.336Z,100050.30
2023-05-23T18:02:24.411Z,100053.43
2023-05-23T18:04:57.335Z,100058.22
2023-05-23T18:07:29.233Z,100058.39
2023-05-23T18:10:01.595Z,100055.90
2023-05-23T18:12:33.538Z,100056.02
2023-05-23T18:15:07.504Z,100061.14
2023-05-23T18:17:41.732Z,100067.24
2023-05-23T18:20:18.271Z,100073.20
2023-05-23T18:22:55.742Z,100079.56
2023-05-23T18:25:28.958Z,100085.58
2023-05-23T18:28:02.546Z,100087.47
2023-05-23T18:30:34.439Z,100089.05
2023-05-23T18:33:07.438Z,100087.16
2023-05-23T18:35:39.692Z,100088.16
2023-05-23T18:38:16.454Z,100093.99
2023-05-23T18:40:47.090Z,100102.20
2023-05-23T18:43:20.261Z,100108.16
2023-05-23T18:45:52.385Z,100118.44
2023-05-23T18:48:24.379Z,100118.85
2023-05-23T18:50:56.569Z,100122.88
2023-05-23T18:53:28.549Z,100120.65
2023-05-23T18:56:01.483Z,100119.52
2023-05-23T18:58:33.704Z,100119.69
2023-05-23T19:01:07.185Z,100118.30
2023-05-23T19:03:38.277Z,100118.55
2023-05-23T19:06:10.581Z,100122.25
2023-05-23T19:08:44.214Z,100118.86
2023-05-23T19:11:16.725Z,100114.86
2023-05-23T19:13:51.221Z,100113.13
2023-05-23T19:16:24.075Z,100114.94
2023-05-23T19:18:56.288Z,100122.31
2023-05-23T19:21:29.485Z,100124.20
2023-05-23T19:24:04.205Z,100124.83
2023-05-23T19:26:36.481Z,100122.73
2023-05-23T19:29:08.652Z,100122.83
2023-05-23T19:31:42.188Z,100124.06
2023-05-23T19:34:14.516Z,100125.21
2023-05-23T19:36:46.943Z,100129.62
2023-05-23T19:39:21.536Z,100136.69
2023-05-23T19:41:53.803Z,100139.33
2023-05-23T19:44:25.871Z,100141.65
2023-05-23T19:46:57.994Z,100150.77
2023-05-23T19:49:30.579Z,100155.98
2023-05-23T19:52:02.428Z,100158.59
2023-05-23T19:54:34.851Z,100159.61
2023-05-23T19:57:07.673Z,100160.80
2023-05-23T19:59:40.867Z,100162.76
2023-05-23T20:02:13.611Z,100159.79
2023-05-23T20:04:47.347Z,100162.86
2023-05-23T20:07:20.129Z,100161.47
2023-05-23T20:09:52.461Z,100166.21
2023-05-23T20:12:24.361Z,100168.49
2023-05-23T20:14:57.521Z,100171.80
2023-05-23T20:17:30.773Z,100175.70
2023-05-23T20:20:04.168Z,100175.60
2023-05-23T20:22:35.901Z,100176.71
2023-05-23T20:25:10.197Z,100178.63
2023-05-23T20:27:41.896Z,100177.98
2023-05-23T20:30:15.665Z,100174.59
2023-05-23T20:32:48.486Z,100174.70
2023-05-23T20:35:20.536Z,100178.55
2023-05-23T20:37:53.539Z,100173.70
2023-05-23T20:40:25.690Z,100171.23
2023-05-23T20:43:00.713Z,100171.85
2023-05-23T20:45:32.547Z,100171.92
2023-05-23T20:48:04.586Z,100173.42
2023-05-23T20:50:37.961Z,100176.49
2023-05-23T20:53:09.723Z,100178.99
2023-05-23T20:55:42.477Z,100186.22
2023-05-23T20:58:14.515Z,100185.77
2023-05-23T21:00:46.433Z,100192.09
2023-05-23T21:03:18.607Z,100188.81
2023-05-23T21:05:50.978Z,100192.62
2023-05-23T21:08:22.842Z,100195.79
2023-05-23T21:10:55.033Z,100197.29
2023-05-23T21:13:27.274Z,100196.20
2023-05-23T21:15:58.932Z,100200.53
2023-05-23T21:18:30.876Z,100197.55
2023-05-23T21:21:02.572Z,100196.14
2023-05-23T21:23:34.359Z,100201.77
2023-05-23T21:26:06.130Z,100202.34
2023-05-23T21:28:37.886Z,100201.29
2023-05-23T21:31:09.950Z,100201.31
2023-05-23T21:33:42.054Z,100202.95
2023-05-23T21:36:13.694Z,100204.17
2023-05-23T21:38:45.446Z,100209.44
2023-05-23T21:41:17.181Z,100205.14
2023-05-23T21:43:48.954Z,100206.40
2023-05-23T21:46:21.728Z,100210.73
2023-05-23T21:48:51.869Z,100205.66
2023-05-23T21:51:23.582Z,100208.11
2023-05-23T21:53:55.373Z,100209.48
2023-05-23T21:56:27.992Z,100205.10
2023-05-23T21:58:58.106Z,100201.77
2023-05-23T22:01:30.196Z,100203.80
2023-05-23T22:04:02.172Z,100203.27
2023-05-23T22:06:34.282Z,100203.27
2023-05-23T22:09:10.199Z,100201.65
2023-05-23T22:11:42.466Z,100202.70
2023-05-23T22:14:13.059Z,100200.58
2023-05-23T22:16:45.180Z,100206.07
2023-05-23T22:19:18.103Z,100202.16
2023-05-23T22:21:50.200Z,100202.88
2023-05-23T22:24:22.318Z,100202.41
2023-05-23T22:26:54.032Z,100205.98
2023-05-23T22:29:26.047Z,100206.54
2023-05-23T22:31:57.911Z,100208.92
2023-05-23T22:34:29.907Z,100214.43
2023-05-23T22:37:02.385Z,100210.24
2023-05-23T22:39:34.211Z,100209.25
2023-05-23T22:42:06.708Z,100209.27
2023-05-23T22:44:38.835Z,100211.12
2023-05-23T22:47:13.780Z,100210.30
2023-05-23T22:49:46.125Z,100213.12
2023-05-23T22:52:18.385Z,100215.15
2023-05-23T22:54:50.281Z,100218.30
2023-05-23T22:57:22.419Z,100214.84
2023-05-23T22:59:54.247Z,100216.18
2023-05-23T23:02:25.999Z,100214.63
2023-05-23T23:04:57.911Z,100210.20
2023-05-23T23:07:30.228Z,100204.66
2023-05-23T23:10:02.422Z,100205.59
2023-05-23T23:12:34.354Z,100199.73
2023-05-23T23:15:07.566Z,100206.79
2023-05-23T23:17:39.588Z,100216.80
2023-05-23T23:20:13.284Z,100214.78
2023-05-23T23:22:45.681Z,100218.55
2023-05-23T23:25:18.750Z,100220.63
2023-05-23T23:27:50.896Z,100216.31
2023-05-23T23:30:23.172Z,100214.78
2023-05-23T23:32:55.180Z,100217.46
2023-05-23T23:35:27.071Z,100217.02
2023-05-23T23:37:58.811Z,100221.41
2023-05-23T23:40:30.600Z,100217.65
2023-05-23T23:43:02.877Z,100221.04
2023-05-23T23:45:34.582Z,100218.56
2023-05-23T23:48:07.560Z,100222.00
2023-05-23T23:50:39.542Z,100223.40
2023-05-23T23:53:12.509Z,100225.55
2023-05-23T23:55:44.236Z,100227.09
2023-05-23T23:58:15.993Z,100234.27
